sensor_id;sensor_type;location;lat;lon;timestamp;P1;durP1;ratioP1;P2;durP2;ratioP2
17024;SDS011;8629;42.496;25.620;2023-06-26T00:00:06;2.60;;;2.40;;
17024;SDS011;8629;42.496;25.620;2023-06-26T00:02:34;5.20;;;2.73;;
17024;SDS011;8629;42.496;25.620;2023-06-26T00:05:01;3.50;;;3.13;;
17024;SDS011;8629;42.496;25.620;2023-06-26T00:07:28;3.10;;;2.80;;
17024;SDS011;8629;42.496;25.620;2023-06-26T00:09:56;3.50;;;3.10;;
17024;SDS011;8629;42.496;25.620;2023-06-26T00:12:23;3.87;;;3.50;;
17024;SDS011;8629;42.496;25.620;2023-06-26T00:14:52;3.33;;;3.03;;
17024;SDS011;8629;42.496;25.620;2023-06-26T00:17:18;3.40;;;3.10;;
17024;SDS011;8629;42.496;25.620;2023-06-26T00:19:45;3.07;;;2.77;;
17024;SDS011;8629;42.496;25.620;2023-06-26T00:22:12;2.40;;;2.20;;
17024;SDS011;8629;42.496;25.620;2023-06-26T00:24:39;3.97;;;2.63;;
17024;SDS011;8629;42.496;25.620;2023-06-26T00:27:05;2.83;;;2.37;;
17024;SDS011;8629;42.496;25.620;2023-06-26T00:29:32;1.90;;;1.80;;
17024;SDS011;8629;42.496;25.620;2023-06-26T00:32:01;4.90;;;2.10;;
17024;SDS011;8629;42.496;25.620;2023-06-26T00:34:28;1.97;;;1.80;;
17024;SDS011;8629;42.496;25.620;2023-06-26T00:36:55;2.07;;;1.87;;
17024;SDS011;8629;42.496;25.620;2023-06-26T00:39:22;2.17;;;1.80;;
17024;SDS011;8629;42.496;25.620;2023-06-26T00:41:50;2.37;;;2.10;;
17024;SDS011;8629;42.496;25.620;2023-06-26T00:44:18;2.10;;;2.00;;
17024;SDS011;8629;42.496;25.620;2023-06-26T00:46:45;3.80;;;2.80;;
17024;SDS011;8629;42.496;25.620;2023-06-26T00:49:13;2.10;;;1.90;;
17024;SDS011;8629;42.496;25.620;2023-06-26T00:51:40;2.70;;;2.50;;
17024;SDS011;8629;42.496;25.620;2023-06-26T00:54:07;1.73;;;1.63;;
17024;SDS011;8629;42.496;25.620;2023-06-26T00:56:35;1.90;;;1.43;;
17024;SDS011;8629;42.496;25.620;2023-06-26T00:59:01;1.53;;;1.43;;
17024;SDS011;8629;42.496;25.620;2023-06-26T01:01:28;2.63;;;1.90;;
17024;SDS011;8629;42.496;25.620;2023-06-26T01:03:55;1.43;;;1.30;;
17024;SDS011;8629;42.496;25.620;2023-06-26T01:06:24;2.40;;;1.70;;
17024;SDS011;8629;42.496;25.620;2023-06-26T01:08:52;1.53;;;1.43;;
17024;SDS011;8629;42.496;25.620;2023-06-26T01:11:19;4.30;;;1.70;;
17024;SDS011;8629;42.496;25.620;2023-06-26T01:13:46;2.97;;;1.70;;
17024;SDS011;8629;42.496;25.620;2023-06-26T01:16:12;1.80;;;1.70;;
17024;SDS011;8629;42.496;25.620;2023-06-26T01:18:41;6.37;;;1.83;;
17024;SDS011;8629;42.496;25.620;2023-06-26T01:21:09;1.63;;;1.53;;
17024;SDS011;8629;42.496;25.620;2023-06-26T01:23:39;2.23;;;1.53;;
17024;SDS011;8629;42.496;25.620;2023-06-26T01:26:22;2.13;;;1.87;;
17024;SDS011;8629;42.496;25.620;2023-06-26T01:28:50;2.20;;;2.00;;
17024;SDS011;8629;42.496;25.620;2023-06-26T01:31:17;1.97;;;1.87;;
17024;SDS011;8629;42.496;25.620;2023-06-26T01:33:45;2.43;;;2.20;;
17024;SDS011;8629;42.496;25.620;2023-06-26T01:36:12;2.43;;;2.23;;
17024;SDS011;8629;42.496;25.620;2023-06-26T01:38:40;2.93;;;2.20;;
17024;SDS011;8629;42.496;25.620;2023-06-26T01:41:06;2.80;;;2.27;;
17024;SDS011;8629;42.496;25.620;2023-06-26T01:43:37;3.90;;;2.27;;
17024;SDS011;8629;42.496;25.620;2023-06-26T01:46:09;2.40;;;2.20;;
17024;SDS011;8629;42.496;25.620;2023-06-26T01:48:40;3.70;;;2.03;;
17024;SDS011;8629;42.496;25.620;2023-06-26T01:51:11;3.93;;;2.53;;
17024;SDS011;8629;42.496;25.620;2023-06-26T01:53:41;2.40;;;2.20;;
17024;SDS011;8629;42.496;25.620;2023-06-26T01:56:12;2.23;;;1.90;;
17024;SDS011;8629;42.496;25.620;2023-06-26T01:58:43;2.33;;;2.13;;
17024;SDS011;8629;42.496;25.620;2023-06-26T02:01:11;2.30;;;2.10;;
17024;SDS011;8629;42.496;25.620;2023-06-26T02:03:38;2.73;;;2.23;;
17024;SDS011;8629;42.496;25.620;2023-06-26T02:06:04;2.60;;;2.30;;
17024;SDS011;8629;42.496;25.620;2023-06-26T02:08:31;3.37;;;1.97;;
17024;SDS011;8629;42.496;25.620;2023-06-26T02:10:58;2.03;;;1.93;;
17024;SDS011;8629;42.496;25.620;2023-06-26T02:13:25;2.30;;;2.10;;
17024;SDS011;8629;42.496;25.620;2023-06-26T02:15:53;2.40;;;2.20;;
17024;SDS011;8629;42.496;25.620;2023-06-26T02:18:20;2.80;;;2.00;;
17024;SDS011;8629;42.496;25.620;2023-06-26T02:20:47;1.87;;;1.77;;
17024;SDS011;8629;42.496;25.620;2023-06-26T02:23:14;2.00;;;1.90;;
17024;SDS011;8629;42.496;25.620;2023-06-26T02:25:41;2.40;;;2.00;;
17024;SDS011;8629;42.496;25.620;2023-06-26T02:28:07;2.50;;;2.30;;
17024;SDS011;8629;42.496;25.620;2023-06-26T02:30:34;4.23;;;2.17;;
17024;SDS011;8629;42.496;25.620;2023-06-26T02:33:05;2.57;;;2.37;;
17024;SDS011;8629;42.496;25.620;2023-06-26T02:35:32;3.53;;;2.40;;
17024;SDS011;8629;42.496;25.620;2023-06-26T02:37:59;2.47;;;2.27;;
17024;SDS011;8629;42.496;25.620;2023-06-26T02:40:25;2.60;;;2.40;;
17024;SDS011;8629;42.496;25.620;2023-06-26T02:42:52;2.30;;;2.10;;
17024;SDS011;8629;42.496;25.620;2023-06-26T02:45:19;2.43;;;2.23;;
17024;SDS011;8629;42.496;25.620;2023-06-26T02:47:46;2.80;;;2.50;;
17024;SDS011;8629;42.496;25.620;2023-06-26T02:50:14;2.87;;;2.57;;
17024;SDS011;8629;42.496;25.620;2023-06-26T02:52:41;3.73;;;2.47;;
17024;SDS011;8629;42.496;25.620;2023-06-26T02:55:07;2.47;;;2.27;;
17024;SDS011;8629;42.496;25.620;2023-06-26T02:57:34;2.37;;;2.17;;
17024;SDS011;8629;42.496;25.620;2023-06-26T03:00:04;4.67;;;2.77;;
17024;SDS011;8629;42.496;25.620;2023-06-26T03:02:33;2.10;;;2.00;;
17024;SDS011;8629;42.496;25.620;2023-06-26T03:05:00;2.40;;;2.20;;
17024;SDS011;8629;42.496;25.620;2023-06-26T03:07:29;2.80;;;2.60;;
17024;SDS011;8629;42.496;25.620;2023-06-26T03:09:56;2.70;;;2.13;;
17024;SDS011;8629;42.496;25.620;2023-06-26T03:12:23;2.50;;;2.30;;
17024;SDS011;8629;42.496;25.620;2023-06-26T03:14:49;6.07;;;2.30;;
17024;SDS011;8629;42.496;25.620;2023-06-26T03:17:16;2.87;;;2.67;;
17024;SDS011;8629;42.496;25.620;2023-06-26T03:19:43;3.27;;;2.73;;
17024;SDS011;8629;42.496;25.620;2023-06-26T03:22:10;3.40;;;3.07;;
17024;SDS011;8629;42.496;25.620;2023-06-26T03:24:38;3.10;;;2.40;;
17024;SDS011;8629;42.496;25.620;2023-06-26T03:27:05;3.10;;;2.80;;
17024;SDS011;8629;42.496;25.620;2023-06-26T03:29:34;4.57;;;2.80;;
17024;SDS011;8629;42.496;25.620;2023-06-26T03:32:01;2.97;;;2.67;;
17024;SDS011;8629;42.496;25.620;2023-06-26T03:34:31;2.73;;;2.47;;
17024;SDS011;8629;42.496;25.620;2023-06-26T03:36:59;3.97;;;2.83;;
17024;SDS011;8629;42.496;25.620;2023-06-26T03:39:25;3.10;;;2.77;;
17024;SDS011;8629;42.496;25.620;2023-06-26T03:41:53;4.43;;;3.17;;
17024;SDS011;8629;42.496;25.620;2023-06-26T03:44:22;2.70;;;2.50;;
17024;SDS011;8629;42.496;25.620;2023-06-26T03:46:48;8.23;;;3.47;;
17024;SDS011;8629;42.496;25.620;2023-06-26T03:49:15;3.50;;;2.50;;
17024;SDS011;8629;42.496;25.620;2023-06-26T03:51:42;3.73;;;2.60;;
17024;SDS011;8629;42.496;25.620;2023-06-26T03:54:09;2.53;;;2.23;;
17024;SDS011;8629;42.496;25.620;2023-06-26T03:56:36;2.97;;;2.60;;
17024;SDS011;8629;42.496;25.620;2023-06-26T03:59:04;3.60;;;2.60;;
17024;SDS011;8629;42.496;25.620;2023-06-26T04:01:31;2.83;;;2.43;;
17024;SDS011;8629;42.496;25.620;2023-06-26T04:03:59;3.33;;;2.40;;
17024;SDS011;8629;42.496;25.620;2023-06-26T04:06:26;3.00;;;2.33;;
17024;SDS011;8629;42.496;25.620;2023-06-26T04:08:53;2.77;;;2.50;;
17024;SDS011;8629;42.496;25.620;2023-06-26T04:11:20;5.87;;;2.70;;
17024;SDS011;8629;42.496;25.620;2023-06-26T04:13:47;2.50;;;2.30;;
17024;SDS011;8629;42.496;25.620;2023-06-26T04:16:17;3.40;;;2.30;;
17024;SDS011;8629;42.496;25.620;2023-06-26T04:18:44;2.43;;;2.17;;
17024;SDS011;8629;42.496;25.620;2023-06-26T04:21:11;5.63;;;2.50;;
17024;SDS011;8629;42.496;25.620;2023-06-26T04:23:40;3.20;;;2.47;;
17024;SDS011;8629;42.496;25.620;2023-06-26T04:26:07;2.60;;;2.23;;
17024;SDS011;8629;42.496;25.620;2023-06-26T04:28:39;2.60;;;2.40;;
17024;SDS011;8629;42.496;25.620;2023-06-26T04:31:06;2.57;;;2.30;;
17024;SDS011;8629;42.496;25.620;2023-06-26T04:33:36;4.50;;;3.03;;
17024;SDS011;8629;42.496;25.620;2023-06-26T04:36:03;4.17;;;2.80;;
17024;SDS011;8629;42.496;25.620;2023-06-26T04:38:30;4.07;;;2.37;;
17024;SDS011;8629;42.496;25.620;2023-06-26T04:40:58;5.27;;;3.00;;
17024;SDS011;8629;42.496;25.620;2023-06-26T04:43:24;2.60;;;2.40;;
17024;SDS011;8629;42.496;25.620;2023-06-26T04:45:51;3.50;;;3.20;;
17024;SDS011;8629;42.496;25.620;2023-06-26T04:48:18;2.93;;;2.63;;
17024;SDS011;8629;42.496;25.620;2023-06-26T04:50:47;2.80;;;2.53;;
17024;SDS011;8629;42.496;25.620;2023-06-26T04:53:19;2.60;;;2.40;;
17024;SDS011;8629;42.496;25.620;2023-06-26T04:55:46;3.73;;;2.87;;
17024;SDS011;8629;42.496;25.620;2023-06-26T04:58:13;4.27;;;2.83;;
17024;SDS011;8629;42.496;25.620;2023-06-26T05:00:39;3.33;;;3.03;;
17024;SDS011;8629;42.496;25.620;2023-06-26T05:03:07;3.67;;;2.67;;
17024;SDS011;8629;42.496;25.620;2023-06-26T05:05:34;2.60;;;2.27;;
17024;SDS011;8629;42.496;25.620;2023-06-26T05:08:14;2.80;;;2.60;;
17024;SDS011;8629;42.496;25.620;2023-06-26T05:10:41;5.70;;;2.83;;
17024;SDS011;8629;42.496;25.620;2023-06-26T05:13:09;3.47;;;2.97;;
17024;SDS011;8629;42.496;25.620;2023-06-26T05:15:36;3.40;;;2.97;;
17024;SDS011;8629;42.496;25.620;2023-06-26T05:18:03;3.30;;;2.60;;
17024;SDS011;8629;42.496;25.620;2023-06-26T05:20:31;2.70;;;2.50;;
17024;SDS011;8629;42.496;25.620;2023-06-26T05:22:58;2.50;;;2.23;;
17024;SDS011;8629;42.496;25.620;2023-06-26T05:25:26;3.00;;;2.67;;
17024;SDS011;8629;42.496;25.620;2023-06-26T05:27:54;3.23;;;2.80;;
17024;SDS011;8629;42.496;25.620;2023-06-26T05:30:22;5.47;;;3.13;;
17024;SDS011;8629;42.496;25.620;2023-06-26T05:32:50;4.40;;;2.60;;
17024;SDS011;8629;42.496;25.620;2023-06-26T05:35:18;3.73;;;3.00;;
17024;SDS011;8629;42.496;25.620;2023-06-26T05:37:47;3.20;;;2.90;;
17024;SDS011;8629;42.496;25.620;2023-06-26T05:40:15;3.80;;;2.73;;
17024;SDS011;8629;42.496;25.620;2023-06-26T05:42:44;3.53;;;3.10;;
17024;SDS011;8629;42.496;25.620;2023-06-26T05:45:12;3.50;;;2.60;;
17024;SDS011;8629;42.496;25.620;2023-06-26T05:47:40;3.23;;;2.93;;
17024;SDS011;8629;42.496;25.620;2023-06-26T05:50:08;3.47;;;3.17;;
17024;SDS011;8629;42.496;25.620;2023-06-26T05:52:36;4.00;;;3.23;;
17024;SDS011;8629;42.496;25.620;2023-06-26T05:55:05;3.93;;;3.60;;
17024;SDS011;8629;42.496;25.620;2023-06-26T05:57:32;4.10;;;3.20;;
17024;SDS011;8629;42.496;25.620;2023-06-26T06:00:04;8.50;;;3.50;;
17024;SDS011;8629;42.496;25.620;2023-06-26T06:02:35;4.33;;;3.70;;
17024;SDS011;8629;42.496;25.620;2023-06-26T06:05:04;4.37;;;3.97;;
17024;SDS011;8629;42.496;25.620;2023-06-26T06:07:31;4.43;;;3.33;;
17024;SDS011;8629;42.496;25.620;2023-06-26T06:09:58;3.33;;;3.03;;
17024;SDS011;8629;42.496;25.620;2023-06-26T06:12:25;3.90;;;3.20;;
17024;SDS011;8629;42.496;25.620;2023-06-26T06:14:53;3.47;;;3.17;;
17024;SDS011;8629;42.496;25.620;2023-06-26T06:17:21;4.90;;;3.07;;
17024;SDS011;8629;42.496;25.620;2023-06-26T06:19:48;3.80;;;3.07;;
17024;SDS011;8629;42.496;25.620;2023-06-26T06:22:18;3.63;;;3.33;;
17024;SDS011;8629;42.496;25.620;2023-06-26T06:24:44;3.27;;;2.97;;
17024;SDS011;8629;42.496;25.620;2023-06-26T06:27:11;3.57;;;2.47;;
17024;SDS011;8629;42.496;25.620;2023-06-26T06:29:38;3.57;;;2.53;;
17024;SDS011;8629;42.496;25.620;2023-06-26T06:32:05;3.60;;;2.73;;
17024;SDS011;8629;42.496;25.620;2023-06-26T06:34:34;2.50;;;2.30;;
17024;SDS011;8629;42.496;25.620;2023-06-26T06:37:04;3.03;;;2.67;;
17024;SDS011;8629;42.496;25.620;2023-06-26T06:39:30;2.50;;;2.30;;
17024;SDS011;8629;42.496;25.620;2023-06-26T06:41:57;2.90;;;2.40;;
17024;SDS011;8629;42.496;25.620;2023-06-26T06:44:24;3.63;;;2.40;;
17024;SDS011;8629;42.496;25.620;2023-06-26T06:46:51;3.10;;;2.23;;
17024;SDS011;8629;42.496;25.620;2023-06-26T06:49:18;2.77;;;2.57;;
17024;SDS011;8629;42.496;25.620;2023-06-26T06:51:46;3.47;;;2.13;;
17024;SDS011;8629;42.496;25.620;2023-06-26T06:54:14;4.43;;;2.70;;
17024;SDS011;8629;42.496;25.620;2023-06-26T06:56:41;5.43;;;2.60;;
17024;SDS011;8629;42.496;25.620;2023-06-26T06:59:11;2.33;;;2.17;;
17024;SDS011;8629;42.496;25.620;2023-06-26T07:01:38;1.90;;;1.80;;
17024;SDS011;8629;42.496;25.620;2023-06-26T07:04:06;2.07;;;1.97;;
17024;SDS011;8629;42.496;25.620;2023-06-26T07:06:33;2.23;;;1.90;;
17024;SDS011;8629;42.496;25.620;2023-06-26T07:09:01;2.27;;;2.03;;
17024;SDS011;8629;42.496;25.620;2023-06-26T07:11:28;2.70;;;1.97;;
17024;SDS011;8629;42.496;25.620;2023-06-26T07:13:55;1.83;;;1.63;;
17024;SDS011;8629;42.496;25.620;2023-06-26T07:16:22;2.00;;;1.83;;
17024;SDS011;8629;42.496;25.620;2023-06-26T07:18:48;2.63;;;1.70;;
17024;SDS011;8629;42.496;25.620;2023-06-26T07:21:17;1.43;;;1.33;;
17024;SDS011;8629;42.496;25.620;2023-06-26T07:23:44;1.60;;;1.50;;
17024;SDS011;8629;42.496;25.620;2023-06-26T07:26:13;1.60;;;1.50;;
17024;SDS011;8629;42.496;25.620;2023-06-26T07:28:40;1.83;;;1.63;;
17024;SDS011;8629;42.496;25.620;2023-06-26T07:31:07;1.93;;;1.80;;
17024;SDS011;8629;42.496;25.620;2023-06-26T07:33:34;1.83;;;1.73;;
17024;SDS011;8629;42.496;25.620;2023-06-26T07:36:01;1.73;;;1.63;;
17024;SDS011;8629;42.496;25.620;2023-06-26T07:38:28;1.80;;;1.70;;
17024;SDS011;8629;42.496;25.620;2023-06-26T07:40:55;1.70;;;1.60;;
17024;SDS011;8629;42.496;25.620;2023-06-26T07:43:23;1.77;;;1.50;;
17024;SDS011;8629;42.496;25.620;2023-06-26T07:45:50;1.90;;;1.50;;
17024;SDS011;8629;42.496;25.620;2023-06-26T07:48:18;1.87;;;1.77;;
17024;SDS011;8629;42.496;25.620;2023-06-26T07:50:45;1.53;;;1.17;;
17024;SDS011;8629;42.496;25.620;2023-06-26T07:53:12;1.60;;;1.50;;
17024;SDS011;8629;42.496;25.620;2023-06-26T07:55:38;1.70;;;1.60;;
17024;SDS011;8629;42.496;25.620;2023-06-26T07:58:05;1.87;;;1.73;;
17024;SDS011;8629;42.496;25.620;2023-06-26T08:00:34;1.40;;;1.30;;
17024;SDS011;8629;42.496;25.620;2023-06-26T08:03:01;1.70;;;1.60;;
17024;SDS011;8629;42.496;25.620;2023-06-26T08:05:30;1.50;;;1.40;;
17024;SDS011;8629;42.496;25.620;2023-06-26T08:07:57;2.53;;;1.47;;
17024;SDS011;8629;42.496;25.620;2023-06-26T08:10:25;1.40;;;1.30;;
17024;SDS011;8629;42.496;25.620;2023-06-26T08:12:51;1.60;;;1.50;;
17024;SDS011;8629;42.496;25.620;2023-06-26T08:15:18;1.47;;;1.37;;
17024;SDS011;8629;42.496;25.620;2023-06-26T08:17:46;1.83;;;1.50;;
17024;SDS011;8629;42.496;25.620;2023-06-26T08:20:15;1.23;;;1.13;;
17024;SDS011;8629;42.496;25.620;2023-06-26T08:22:44;1.43;;;1.23;;
17024;SDS011;8629;42.496;25.620;2023-06-26T08:25:13;1.63;;;1.53;;
17024;SDS011;8629;42.496;25.620;2023-06-26T08:27:40;1.83;;;1.47;;
17024;SDS011;8629;42.496;25.620;2023-06-26T08:30:07;1.50;;;1.40;;
17024;SDS011;8629;42.496;25.620;2023-06-26T08:32:34;1.93;;;1.50;;
17024;SDS011;8629;42.496;25.620;2023-06-26T08:35:03;1.70;;;1.60;;
17024;SDS011;8629;42.496;25.620;2023-06-26T08:37:30;1.57;;;1.47;;
17024;SDS011;8629;42.496;25.620;2023-06-26T08:39:57;1.63;;;1.50;;
17024;SDS011;8629;42.496;25.620;2023-06-26T08:42:24;1.70;;;1.60;;
17024;SDS011;8629;42.496;25.620;2023-06-26T08:44:51;1.40;;;1.30;;
17024;SDS011;8629;42.496;25.620;2023-06-26T08:47:19;1.33;;;1.23;;
17024;SDS011;8629;42.496;25.620;2023-06-26T08:49:46;2.13;;;1.47;;
17024;SDS011;8629;42.496;25.620;2023-06-26T08:52:19;1.83;;;1.73;;
17024;SDS011;8629;42.496;25.620;2023-06-26T08:54:51;1.97;;;1.63;;
17024;SDS011;8629;42.496;25.620;2023-06-26T08:57:19;1.77;;;1.67;;
17024;SDS011;8629;42.496;25.620;2023-06-26T08:59:47;2.07;;;1.97;;
17024;SDS011;8629;42.496;25.620;2023-06-26T09:02:14;1.80;;;1.70;;
17024;SDS011;8629;42.496;25.620;2023-06-26T09:04:41;2.87;;;2.10;;
17024;SDS011;8629;42.496;25.620;2023-06-26T09:07:08;2.53;;;2.33;;
17024;SDS011;8629;42.496;25.620;2023-06-26T09:09:39;2.30;;;2.10;;
17024;SDS011;8629;42.496;25.620;2023-06-26T09:12:06;3.20;;;2.40;;
17024;SDS011;8629;42.496;25.620;2023-06-26T09:14:34;3.97;;;2.33;;
17024;SDS011;8629;42.496;25.620;2023-06-26T09:17:02;2.93;;;2.37;;
17024;SDS011;8629;42.496;25.620;2023-06-26T09:19:29;2.67;;;2.47;;
17024;SDS011;8629;42.496;25.620;2023-06-26T09:21:56;2.23;;;2.03;;
17024;SDS011;8629;42.496;25.620;2023-06-26T09:24:23;2.40;;;2.20;;
17024;SDS011;8629;42.496;25.620;2023-06-26T09:26:52;2.50;;;2.27;;
17024;SDS011;8629;42.496;25.620;2023-06-26T09:29:19;2.33;;;2.13;;
17024;SDS011;8629;42.496;25.620;2023-06-26T09:31:46;2.03;;;1.83;;
17024;SDS011;8629;42.496;25.620;2023-06-26T09:34:13;3.83;;;2.13;;
17024;SDS011;8629;42.496;25.620;2023-06-26T09:36:40;2.07;;;1.97;;
17024;SDS011;8629;42.496;25.620;2023-06-26T10:36:28;4.07;;;3.67;;
17024;SDS011;8629;42.496;25.620;2023-06-26T10:38:56;3.17;;;2.83;;
17024;SDS011;8629;42.496;25.620;2023-06-26T10:41:25;3.40;;;3.10;;
17024;SDS011;8629;42.496;25.620;2023-06-26T10:44:05;3.03;;;2.80;;
17024;SDS011;8629;42.496;25.620;2023-06-26T10:46:33;6.40;;;3.33;;
17024;SDS011;8629;42.496;25.620;2023-06-26T10:49:00;4.30;;;3.00;;
17024;SDS011;8629;42.496;25.620;2023-06-26T10:51:29;5.83;;;3.90;;
17024;SDS011;8629;42.496;25.620;2023-06-26T10:53:56;4.90;;;3.40;;
17024;SDS011;8629;42.496;25.620;2023-06-26T10:56:41;3.23;;;2.93;;
17024;SDS011;8629;42.496;25.620;2023-06-26T10:59:16;4.07;;;3.67;;
17024;SDS011;8629;42.496;25.620;2023-06-26T11:01:44;5.70;;;2.70;;
17024;SDS011;8629;42.496;25.620;2023-06-26T11:04:13;12.37;;;3.57;;
17024;SDS011;8629;42.496;25.620;2023-06-26T11:06:44;4.37;;;3.50;;
17024;SDS011;8629;42.496;25.620;2023-06-26T11:09:14;3.83;;;3.50;;
17024;SDS011;8629;42.496;25.620;2023-06-26T11:11:59;3.83;;;3.13;;
17024;SDS011;8629;42.496;25.620;2023-06-26T11:14:32;3.73;;;2.97;;
17024;SDS011;8629;42.496;25.620;2023-06-26T11:17:01;3.77;;;3.30;;
17024;SDS011;8629;42.496;25.620;2023-06-26T11:19:29;4.23;;;3.80;;
17024;SDS011;8629;42.496;25.620;2023-06-26T11:22:01;7.63;;;3.63;;
17024;SDS011;8629;42.496;25.620;2023-06-26T11:24:29;3.87;;;3.47;;
17024;SDS011;8629;42.496;25.620;2023-06-26T11:26:59;5.50;;;3.20;;
17024;SDS011;8629;42.496;25.620;2023-06-26T11:29:27;3.80;;;3.50;;
17024;SDS011;8629;42.496;25.620;2023-06-26T11:31:58;4.43;;;3.37;;
17024;SDS011;8629;42.496;25.620;2023-06-26T11:34:29;3.43;;;3.13;;
17024;SDS011;8629;42.496;25.620;2023-06-26T11:36:56;7.43;;;3.77;;
17024;SDS011;8629;42.496;25.620;2023-06-26T11:39:27;3.67;;;3.37;;
17024;SDS011;8629;42.496;25.620;2023-06-26T11:41:54;4.53;;;3.23;;
17024;SDS011;8629;42.496;25.620;2023-06-26T11:44:21;4.50;;;3.80;;
17024;SDS011;8629;42.496;25.620;2023-06-26T11:46:51;4.00;;;3.37;;
17024;SDS011;8629;42.496;25.620;2023-06-26T11:49:20;3.70;;;3.37;;
17024;SDS011;8629;42.496;25.620;2023-06-26T11:51:48;7.07;;;3.53;;
17024;SDS011;8629;42.496;25.620;2023-06-26T11:54:15;4.10;;;3.30;;
17024;SDS011;8629;42.496;25.620;2023-06-26T11:56:53;4.87;;;3.10;;
17024;SDS011;8629;42.496;25.620;2023-06-26T11:59:21;4.30;;;3.30;;
17024;SDS011;8629;42.496;25.620;2023-06-26T12:01:49;5.10;;;3.23;;
17024;SDS011;8629;42.496;25.620;2023-06-26T12:04:17;6.27;;;3.67;;
17024;SDS011;8629;42.496;25.620;2023-06-26T12:06:47;3.97;;;3.53;;
17024;SDS011;8629;42.496;25.620;2023-06-26T12:09:17;3.57;;;3.27;;
17024;SDS011;8629;42.496;25.620;2023-06-26T12:11:46;4.33;;;3.30;;
17024;SDS011;8629;42.496;25.620;2023-06-26T12:14:15;6.83;;;4.00;;
17024;SDS011;8629;42.496;25.620;2023-06-26T12:16:43;4.00;;;3.10;;
17024;SDS011;8629;42.496;25.620;2023-06-26T12:19:10;3.97;;;3.60;;
17024;SDS011;8629;42.496;25.620;2023-06-26T12:21:44;7.83;;;3.43;;
17024;SDS011;8629;42.496;25.620;2023-06-26T12:24:13;5.45;;;3.45;;
17024;SDS011;8629;42.496;25.620;2023-06-26T12:26:41;5.03;;;3.80;;
17024;SDS011;8629;42.496;25.620;2023-06-26T12:29:09;4.15;;;3.83;;
17024;SDS011;8629;42.496;25.620;2023-06-26T12:31:40;8.20;;;3.33;;
17024;SDS011;8629;42.496;25.620;2023-06-26T12:34:11;5.78;;;4.18;;
17024;SDS011;8629;42.496;25.620;2023-06-26T12:36:42;3.90;;;3.60;;
17024;SDS011;8629;42.496;25.620;2023-06-26T12:39:09;4.38;;;4.07;;
17024;SDS011;8629;42.496;25.620;2023-06-26T12:41:43;5.90;;;3.90;;
17024;SDS011;8629;42.496;25.620;2023-06-26T12:44:20;5.00;;;4.03;;
17024;SDS011;8629;42.496;25.620;2023-06-26T12:46:49;3.80;;;3.50;;
17024;SDS011;8629;42.496;25.620;2023-06-26T12:49:19;4.93;;;4.20;;
17024;SDS011;8629;42.496;25.620;2023-06-26T12:51:46;4.70;;;3.87;;
17024;SDS011;8629;42.496;25.620;2023-06-26T12:54:13;4.33;;;3.93;;
17024;SDS011;8629;42.496;25.620;2023-06-26T12:56:40;4.13;;;3.73;;
17024;SDS011;8629;42.496;25.620;2023-06-26T12:59:07;5.30;;;3.83;;
17024;SDS011;8629;42.496;25.620;2023-06-26T13:01:33;6.10;;;3.53;;
17024;SDS011;8629;42.496;25.620;2023-06-26T13:04:02;7.87;;;3.77;;
17024;SDS011;8629;42.496;25.620;2023-06-26T13:06:29;5.22;;;3.38;;
17024;SDS011;8629;42.496;25.620;2023-06-26T13:08:56;3.90;;;3.60;;
17024;SDS011;8629;42.496;25.620;2023-06-26T13:11:23;4.70;;;3.47;;
17024;SDS011;8629;42.496;25.620;2023-06-26T13:13:50;6.35;;;3.60;;
17024;SDS011;8629;42.496;25.620;2023-06-26T13:16:17;4.00;;;3.40;;
17024;SDS011;8629;42.496;25.620;2023-06-26T13:18:44;4.68;;;4.03;;
17024;SDS011;8629;42.496;25.620;2023-06-26T13:21:13;3.42;;;3.17;;
17024;SDS011;8629;42.496;25.620;2023-06-26T13:23:41;5.05;;;3.50;;
17024;SDS011;8629;42.496;25.620;2023-06-26T13:26:08;4.75;;;3.90;;
17024;SDS011;8629;42.496;25.620;2023-06-26T13:28:35;4.20;;;3.67;;
17024;SDS011;8629;42.496;25.620;2023-06-26T13:31:02;3.80;;;3.50;;
17024;SDS011;8629;42.496;25.620;2023-06-26T13:33:29;5.50;;;4.65;;
17024;SDS011;8629;42.496;25.620;2023-06-26T13:35:56;7.28;;;4.22;;
17024;SDS011;8629;42.496;25.620;2023-06-26T13:38:25;5.97;;;4.40;;
17024;SDS011;8629;42.496;25.620;2023-06-26T13:40:51;7.10;;;3.63;;
17024;SDS011;8629;42.496;25.620;2023-06-26T13:43:19;4.13;;;3.80;;
17024;SDS011;8629;42.496;25.620;2023-06-26T13:45:47;4.28;;;3.90;;
17024;SDS011;8629;42.496;25.620;2023-06-26T13:48:14;8.00;;;4.15;;
17024;SDS011;8629;42.496;25.620;2023-06-26T13:50:40;7.72;;;4.53;;
17024;SDS011;8629;42.496;25.620;2023-06-26T13:53:07;5.28;;;4.80;;
17024;SDS011;8629;42.496;25.620;2023-06-26T13:55:35;5.05;;;3.97;;
17024;SDS011;8629;42.496;25.620;2023-06-26T13:58:03;7.63;;;4.72;;
17024;SDS011;8629;42.496;25.620;2023-06-26T14:00:30;7.53;;;4.38;;
17024;SDS011;8629;42.496;25.620;2023-06-26T14:02:58;8.23;;;5.72;;
17024;SDS011;8629;42.496;25.620;2023-06-26T14:05:25;6.32;;;3.75;;
17024;SDS011;8629;42.496;25.620;2023-06-26T14:07:52;4.13;;;3.72;;
17024;SDS011;8629;42.496;25.620;2023-06-26T14:10:20;6.27;;;3.97;;
17024;SDS011;8629;42.496;25.620;2023-06-26T14:12:48;3.63;;;3.33;;
17024;SDS011;8629;42.496;25.620;2023-06-26T14:15:15;7.95;;;4.00;;
17024;SDS011;8629;42.496;25.620;2023-06-26T14:17:43;4.30;;;3.88;;
17024;SDS011;8629;42.496;25.620;2023-06-26T14:20:10;9.05;;;4.47;;
17024;SDS011;8629;42.496;25.620;2023-06-26T14:22:38;4.07;;;3.67;;
17024;SDS011;8629;42.496;25.620;2023-06-26T14:25:05;4.27;;;3.87;;
17024;SDS011;8629;42.496;25.620;2023-06-26T14:27:32;5.28;;;4.07;;
17024;SDS011;8629;42.496;25.620;2023-06-26T14:30:01;5.70;;;3.85;;
17024;SDS011;8629;42.496;25.620;2023-06-26T14:32:30;6.77;;;4.33;;
17024;SDS011;8629;42.496;25.620;2023-06-26T14:34:57;3.83;;;3.50;;
17024;SDS011;8629;42.496;25.620;2023-06-26T14:37:24;4.37;;;3.77;;
17024;SDS011;8629;42.496;25.620;2023-06-26T14:39:51;8.47;;;4.77;;
17024;SDS011;8629;42.496;25.620;2023-06-26T14:42:19;6.40;;;3.60;;
17024;SDS011;8629;42.496;25.620;2023-06-26T14:44:46;6.87;;;4.57;;
17024;SDS011;8629;42.496;25.620;2023-06-26T14:47:17;7.33;;;3.50;;
17024;SDS011;8629;42.496;25.620;2023-06-26T14:49:44;4.27;;;3.17;;
17024;SDS011;8629;42.496;25.620;2023-06-26T14:55:32;8.33;;;3.67;;
17024;SDS011;8629;42.496;25.620;2023-06-26T14:57:59;6.67;;;3.63;;
17024;SDS011;8629;42.496;25.620;2023-06-26T15:00:27;5.67;;;3.33;;
17024;SDS011;8629;42.496;25.620;2023-06-26T15:02:55;3.93;;;3.63;;
17024;SDS011;8629;42.496;25.620;2023-06-26T15:05:23;4.17;;;3.03;;
17024;SDS011;8629;42.496;25.620;2023-06-26T15:07:50;6.73;;;3.67;;
17024;SDS011;8629;42.496;25.620;2023-06-26T15:10:17;6.33;;;3.63;;
17024;SDS011;8629;42.496;25.620;2023-06-26T15:12:44;3.70;;;3.10;;
17024;SDS011;8629;42.496;25.620;2023-06-26T15:15:10;3.03;;;2.67;;
17024;SDS011;8629;42.496;25.620;2023-06-26T15:17:38;4.13;;;3.03;;
17024;SDS011;8629;42.496;25.620;2023-06-26T15:20:07;2.50;;;2.30;;
17024;SDS011;8629;42.496;25.620;2023-06-26T15:22:38;2.97;;;2.70;;
17024;SDS011;8629;42.496;25.620;2023-06-26T15:25:06;2.80;;;2.60;;
17024;SDS011;8629;42.496;25.620;2023-06-26T15:27:33;3.60;;;3.00;;
17024;SDS011;8629;42.496;25.620;2023-06-26T15:30:00;3.70;;;2.67;;
17024;SDS011;8629;42.496;25.620;2023-06-26T15:32:27;3.17;;;2.87;;
17024;SDS011;8629;42.496;25.620;2023-06-26T15:34:54;4.07;;;3.20;;
17024;SDS011;8629;42.496;25.620;2023-06-26T15:37:22;5.47;;;2.50;;
17024;SDS011;8629;42.496;25.620;2023-06-26T15:39:49;3.30;;;2.43;;
17024;SDS011;8629;42.496;25.620;2023-06-26T15:42:16;2.63;;;2.20;;
17024;SDS011;8629;42.496;25.620;2023-06-26T15:44:43;2.63;;;2.43;;
17024;SDS011;8629;42.496;25.620;2023-06-26T15:47:09;2.40;;;2.20;;
17024;SDS011;8629;42.496;25.620;2023-06-26T15:49:36;3.13;;;2.17;;
17024;SDS011;8629;42.496;25.620;2023-06-26T15:52:04;2.37;;;2.13;;